Time;durP1;ratioP1;P1;durP2;ratioP2;P2;SDS_P1;SDS_P2;PMS_P1;PMS_P2;Temp;Humidity;BMP_temperature;BMP_pressure;BME280_temperature;BME280_humidity;BME280_pressure;Samples;Min_cycle;Max_cycle;Signal;HPM_P1;HPM_P2
2022/06/26 00:01:54;;;;;;;2.87;2.07;;;;;;;21.04;100.00;100044.38;5006599;28;20771;-75
2022/06/26 00:04:19;;;;;;;2.93;2.03;;;;;;;21.00;100.00;100057.69;5019096;28;20208;-76
2022/06/26 00:06:44;;;;;;;2.37;2.23;;;;;;;20.90;100.00;100056.53;5004916;28;20212;-75
2022/06/26 00:09:10;;;;;;;3.20;1.77;;;;;;;20.85;100.00;100061.19;5003906;28;20771;-75
2022/06/26 00:11:35;;;;;;;3.47;1.60;;;;;;;20.86;100.00;100071.63;5005630;28;20181;-75
2022/06/26 00:14:01;;;;;;;2.27;1.50;;;;;;;20.82;100.00;100075.38;5008837;28;20206;-75
2022/06/26 00:16:26;;;;;;;4.30;1.47;;;;;;;20.75;100.00;100079.25;5032739;28;20537;-76
2022/06/26 00:18:52;;;;;;;1.60;1.50;;;;;;;20.75;100.00;100074.00;5007624;28;20196;-75
2022/06/26 00:21:17;;;;;;;1.70;1.60;;;;;;;20.66;100.00;100070.03;5005734;28;20188;-76
2022/06/26 00:23:43;;;;;;;1.40;1.30;;;;;;;20.64;100.00;100057.94;5017501;28;20606;-75
2022/06/26 00:26:08;;;;;;;2.53;1.40;;;;;;;20.60;100.00;100059.03;5006642;28;20271;-75
2022/06/26 00:28:34;;;;;;;2.80;1.30;;;;;;;20.56;100.00;100061.84;5018819;28;20177;-76
2022/06/26 00:31:01;;;;;;;2.03;1.33;;;;;;;20.54;100.00;100060.22;5004477;28;20528;-76
2022/06/26 00:33:27;;;;;;;1.17;1.13;;;;;;;20.52;100.00;100049.78;5032714;28;20206;-76
2022/06/26 00:35:52;;;;;;;1.30;1.17;;;;;;;20.53;100.00;100040.09;5015605;28;20230;-76
2022/06/26 00:38:17;;;;;;;1.83;1.40;;;;;;;20.56;100.00;100045.19;5001196;28;20184;-76
2022/06/26 00:40:43;;;;;;;1.53;1.43;;;;;;;20.57;100.00;100041.66;5011561;28;20228;-77
2022/06/26 00:43:09;;;;;;;2.73;1.43;;;;;;;20.59;100.00;100041.53;5039812;28;20657;-76
2022/06/26 00:45:35;;;;;;;1.67;1.57;;;;;;;20.58;100.00;100058.25;5006925;28;20215;-76
2022/06/26 00:48:00;;;;;;;1.57;1.20;;;;;;;20.58;100.00;100059.13;5010859;28;20707;-77
2022/06/26 00:50:26;;;;;;;1.40;1.30;;;;;;;20.59;100.00;100058.19;5024735;28;20211;-76
2022/06/26 00:52:53;;;;;;;1.70;1.60;;;;;;;20.54;100.00;100061.06;5011492;28;20184;-76
2022/06/26 00:55:19;;;;;;;2.70;1.53;;;;;;;20.46;100.00;100051.91;5006521;28;20275;-76
2022/06/26 00:57:45;;;;;;;1.50;1.30;;;;;;;20.40;100.00;100066.22;5003616;28;20216;-76
2022/06/26 01:00:12;;;;;;;1.60;1.50;;;;;;;20.34;100.00;100064.78;5002933;28;20681;-76
2022/06/26 01:02:37;;;;;;;2.33;1.33;;;;;;;20.30;100.00;100065.00;5004725;28;20217;-75
2022/06/26 01:05:05;;;;;;;1.80;1.70;;;;;;;20.23;100.00;100054.84;5020658;28;20241;-77
2022/06/26 01:07:31;;;;;;;1.50;1.40;;;;;;;20.18;100.00;100064.72;5013032;28;20217;-75
2022/06/26 01:09:56;;;;;;;1.67;1.57;;;;;;;20.12;100.00;100062.41;5012589;28;20215;-75
2022/06/26 01:12:22;;;;;;;1.90;1.80;;;;;;;20.08;100.00;100060.91;5005023;28;20281;-75
2022/06/26 01:14:48;;;;;;;2.30;1.43;;;;;;;20.04;100.00;100060.19;5008608;28;20222;-76
2022/06/26 01:17:14;;;;;;;2.37;1.67;;;;;;;20.04;100.00;100059.34;5022878;28;20190;-75
2022/06/26 01:19:39;;;;;;;1.83;1.43;;;;;;;20.01;100.00;100055.13;5008494;28;20188;-78
2022/06/26 01:22:05;;;;;;;1.70;1.60;;;;;;;19.98;100.00;100050.03;5009276;28;20203;-75
2022/06/26 01:24:30;;;;;;;1.60;1.50;;;;;;;19.95;100.00;100055.44;5010441;28;20215;-75
2022/06/26 01:26:56;;;;;;;1.30;1.20;;;;;;;19.93;100.00;100050.25;5022867;28;20223;-76
2022/06/26 01:29:23;;;;;;;1.57;1.47;;;;;;;19.92;100.00;100045.06;5008030;28;20263;-75
2022/06/26 01:31:49;;;;;;;1.80;1.70;;;;;;;19.89;100.00;100037.38;5010419;28;20199;-76
2022/06/26 01:34:15;;;;;;;1.50;1.40;;;;;;;19.87;100.00;100036.59;5007203;28;20630;-76
2022/06/26 01:36:40;;;;;;;1.40;1.30;;;;;;;19.87;100.00;100037.44;5009186;28;20274;-77
2022/06/26 01:39:06;;;;;;;1.57;1.47;;;;;;;19.84;100.00;100037.56;5005866;28;20195;-77
2022/06/26 01:41:31;;;;;;;1.37;1.27;;;;;;;19.82;100.00;100054.31;5006922;28;20537;-76
2022/06/26 01:43:56;;;;;;;1.77;1.23;;;;;;;19.76;100.00;100048.44;5011729;28;20212;-77
2022/06/26 01:46:24;;;;;;;2.10;1.20;;;;;;;19.71;100.00;100050.50;5023175;28;20209;-77
2022/06/26 01:48:50;;;;;;;1.50;1.40;;;;;;;19.70;100.00;100037.41;5019827;28;20199;-76
2022/06/26 01:51:15;;;;;;;1.20;1.10;;;;;;;19.70;100.00;100033.03;5007436;28;20185;-77
2022/06/26 01:53:41;;;;;;;1.30;1.20;;;;;;;19.69;100.00;100027.84;5022148;28;20275;-76
2022/06/26 01:56:07;;;;;;;1.33;1.23;;;;;;;19.68;100.00;100024.38;5007433;28;20193;-77
2022/06/26 01:58:33;;;;;;;1.10;1.10;;;;;;;19.66;100.00;100015.72;5009253;28;20263;-77
2022/06/26 02:00:59;;;;;;;1.23;1.13;;;;;;;19.66;100.00;100013.09;5023058;28;20211;-76
2022/06/26 02:03:25;;;;;;;1.10;1.10;;;;;;;19.66;100.00;100018.34;5021600;28;20691;-76
2022/06/26 02:05:51;;;;;;;1.07;1.03;;;;;;;19.69;100.00;100017.34;5008674;28;20302;-76
2022/06/26 02:08:17;;;;;;;1.10;1.10;;;;;;;19.68;100.00;100006.00;5011458;28;20212;-76
2022/06/26 02:13:36;;;;;;;1.20;1.10;;;;;;;19.68;100.00;100000.75;5006829;28;20215;-76
2022/06/26 02:16:12;;;;;;;1.37;1.20;;;;;;;19.71;100.00;100000.59;5008219;28;20182;-75
2022/06/26 02:18:40;;;;;;;1.27;1.20;;;;;;;19.71;100.00;99997.97;5007727;28;20184;-78
2022/06/26 02:21:11;;;;;;;2.00;1.10;;;;;;;19.74;100.00;100002.22;5014572;28;20192;-75
2022/06/26 02:23:37;;;;;;;1.17;1.07;;;;;;;19.72;100.00;99998.81;5006293;28;20284;-77
2022/06/26 02:26:04;;;;;;;1.40;1.30;;;;;;;19.72;100.00;99990.94;5007480;28;20215;-75
2022/06/26 02:28:31;;;;;;;1.10;1.10;;;;;;;19.72;100.00;99998.81;5002109;28;20200;-75
2022/06/26 02:30:57;;;;;;;1.30;1.20;;;;;;;19.75;100.00;99985.53;5005194;28;20199;-76
2022/06/26 02:33:23;;;;;;;1.20;1.10;;;;;;;19.77;100.00;99988.94;5030740;28;20216;-76
2022/06/26 02:35:49;;;;;;;1.20;1.10;;;;;;;19.78;100.00;99988.84;5024421;28;20179;-77
2022/06/26 02:38:17;;;;;;;1.00;1.00;;;;;;;19.77;100.00;99976.63;5034678;28;20281;-75
2022/06/26 02:40:44;;;;;;;1.50;1.40;;;;;;;19.77;100.00;99981.88;5021916;28;20183;-75
2022/06/26 02:43:10;;;;;;;1.20;1.20;;;;;;;19.72;100.00;99977.81;5018287;28;20637;-74
2022/06/26 02:45:35;;;;;;;1.13;1.13;;;;;;;19.65;100.00;99972.03;5015628;28;20191;-75
2022/06/26 02:48:00;;;;;;;0.90;0.90;;;;;;;19.57;100.00;99956.69;5019509;28;20856;-76
2022/06/26 02:50:26;;;;;;;1.20;1.10;;;;;;;19.50;100.00;99966.66;5006656;28;20239;-76
2022/06/26 02:52:52;;;;;;;1.20;1.13;;;;;;;19.42;100.00;99962.72;5023374;28;20196;-77
2022/06/26 02:55:18;;;;;;;1.20;1.10;;;;;;;19.34;100.00;99969.22;5012405;28;20188;-76
2022/06/26 02:57:44;;;;;;;1.30;1.13;;;;;;;19.29;100.00;99976.47;5008262;28;20176;-76
2022/06/26 03:00:12;;;;;;;1.40;1.30;;;;;;;19.22;100.00;99977.69;5010902;28;20202;-76
2022/06/26 03:02:38;;;;;;;1.20;1.20;;;;;;;19.15;100.00;99981.56;5013362;28;20615;-75
2022/06/26 03:05:04;;;;;;;1.93;1.27;;;;;;;19.06;100.00;99985.47;5014866;28;20215;-75
2022/06/26 03:07:30;;;;;;;1.43;1.33;;;;;;;19.00;100.00;99996.25;5037655;28;20214;-76
2022/06/26 03:09:55;;;;;;;1.70;1.60;;;;;;;18.92;100.00;99998.38;5004630;28;20191;-77
2022/06/26 03:12:21;;;;;;;1.23;1.13;;;;;;;18.84;100.00;100004.00;5015311;28;20191;-77
2022/06/26 03:14:46;;;;;;;1.53;1.43;;;;;;;18.78;100.00;100018.25;5028687;28;20706;-77
2022/06/26 03:17:11;;;;;;;1.57;1.47;;;;;;;18.72;100.00;100011.53;5006194;28;20211;-77
2022/06/26 03:19:37;;;;;;;1.10;1.10;;;;;;;18.67;100.00;100008.28;5003436;28;20252;-77
2022/06/26 03:22:02;;;;;;;1.40;1.30;;;;;;;18.64;100.00;100018.06;4995141;28;20241;-78
2022/06/26 03:24:28;;;;;;;1.47;1.37;;;;;;;18.60;100.00;100017.38;5007831;28;20205;-76
2022/06/26 03:26:53;;;;;;;1.50;1.40;;;;;;;18.58;100.00;100022.66;5028614;28;20217;-76
2022/06/26 03:29:19;;;;;;;2.17;1.23;;;;;;;18.56;100.00;100029.72;5008249;28;20707;-76
2022/06/26 03:31:45;;;;;;;1.60;1.50;;;;;;;18.53;100.00;100035.09;5023518;28;20194;-75
2022/06/26 03:34:10;;;;;;;1.37;1.27;;;;;;;18.53;100.00;100039.50;5005941;28;20200;-77
2022/06/26 03:36:36;;;;;;;1.47;1.30;;;;;;;18.51;100.00;100034.34;5010324;28;20193;-76
2022/06/26 03:39:03;;;;;;;1.20;1.10;;;;;;;18.51;100.00;100034.34;5004935;28;20197;-76
2022/06/26 03:41:28;;;;;;;1.27;1.20;;;;;;;18.49;100.00;100015.22;5024222;28;20182;-77
2022/06/26 03:43:54;;;;;;;1.47;1.37;;;;;;;18.50;100.00;100023.94;5032235;28;20224;-76
2022/06/26 03:46:19;;;;;;;1.47;1.37;;;;;;;18.49;100.00;100012.63;5021538;28;20268;-76
2022/06/26 03:48:45;;;;;;;1.33;1.23;;;;;;;18.48;100.00;100025.78;5004675;28;20568;-76
2022/06/26 03:51:11;;;;;;;1.83;1.23;;;;;;;18.45;100.00;100026.78;5006440;28;20181;-76
2022/06/26 03:53:37;;;;;;;4.50;1.40;;;;;;;18.45;100.00;100023.31;5001863;28;20271;-77
2022/06/26 03:56:02;;;;;;;1.50;1.40;;;;;;;18.49;100.00;100041.44;5005335;28;20208;-77
2022/06/26 03:58:28;;;;;;;1.47;1.37;;;;;;;18.58;100.00;100033.13;5005734;28;20188;-76
2022/06/26 04:00:54;;;;;;;1.73;1.40;;;;;;;18.69;100.00;100024.78;5013610;28;20195;-76
2022/06/26 04:03:20;;;;;;;1.33;1.10;;;;;;;19.13;100.00;100030.63;5020406;28;20659;-77
2022/06/26 04:05:46;;;;;;;1.43;1.33;;;;;;;19.74;100.00;100029.31;5022051;28;20210;-75
2022/06/26 04:08:12;;;;;;;1.50;1.40;;;;;;;19.87;100.00;100026.09;5007423;28;20190;-76
2022/06/26 04:10:38;;;;;;;1.40;1.30;;;;;;;19.84;100.00;100013.94;5011023;28;20250;-75
2022/06/26 04:13:08;;;;;;;1.43;1.33;;;;;;;19.83;100.00;100019.28;5004954;28;20350;-77
2022/06/26 04:15:35;;;;;;;3.10;1.30;;;;;;;19.85;100.00;100020.03;5009821;28;20870;-76
2022/06/26 04:18:01;;;;;;;1.30;1.20;;;;;;;19.89;100.00;100017.19;5022088;28;20186;-75
2022/06/26 04:20:27;;;;;;;2.50;1.60;;;;;;;19.98;100.00;100023.75;5004270;28;20188;-76
2022/06/26 04:23:05;;;;;;;1.00;1.00;;;;;;;20.51;100.00;100026.19;5004060;28;20517;-76
2022/06/26 04:25:32;;;;;;;1.20;1.10;;;;;;;21.32;100.00;100033.97;5004306;28;20191;-75
2022/06/26 04:27:58;;;;;;;1.30;1.20;;;;;;;21.42;100.00;100029.00;5022356;28;20183;-76
2022/06/26 04:30:23;;;;;;;1.00;1.00;;;;;;;21.30;100.00;100037.63;5019061;28;21025;-76
2022/06/26 04:32:49;;;;;;;1.60;1.33;;;;;;;21.11;100.00;100029.91;5031105;28;20187;-75
2022/06/26 04:35:15;;;;;;;1.67;1.30;;;;;;;20.97;100.00;100039.44;5008790;28;20191;-76
2022/06/26 04:37:41;;;;;;;1.40;1.30;;;;;;;20.80;100.00;100029.03;5014555;28;20190;-77
2022/06/26 04:40:09;;;;;;;1.60;1.50;;;;;;;20.90;100.00;100037.25;5021707;28;20207;-76
2022/06/26 04:42:35;;;;;;;1.40;1.30;;;;;;;21.71;100.00;100050.16;5005451;28;20192;-76
2022/06/26 04:45:00;;;;;;;1.20;1.20;;;;;;;23.23;100.00;100055.78;5000065;28;20295;-76
2022/06/26 04:47:26;;;;;;;1.60;1.20;;;;;;;24.70;95.28;100050.22;5020867;28;20284;-76
2022/06/26 04:49:51;;;;;;;1.37;1.27;;;;;;;25.96;90.71;100053.22;5014841;28;20192;-77
2022/06/26 04:52:16;;;;;;;2.03;1.23;;;;;;;26.97;87.59;100058.59;5006959;28;20194;-76
2022/06/26 04:54:43;;;;;;;1.40;1.30;;;;;;;27.74;85.45;100058.50;5018696;28;20311;-76
2022/06/26 04:57:08;;;;;;;2.20;1.20;;;;;;;28.45;83.57;100071.88;5005282;28;20517;-75
2022/06/26 04:59:34;;;;;;;1.33;1.23;;;;;;;29.14;81.72;100066.69;4999374;28;20668;-75
2022/06/26 05:02:00;;;;;;;1.63;1.30;;;;;;;29.75;80.24;100082.53;5003859;28;20184;-76
2022/06/26 05:04:25;;;;;;;1.37;1.27;;;;;;;30.33;78.56;100088.69;5012673;28;20207;-76
2022/06/26 05:06:51;;;;;;;2.13;1.50;;;;;;;30.81;75.87;100087.59;5003656;28;20239;-76
2022/06/26 05:09:16;;;;;;;1.40;1.30;;;;;;;31.09;75.54;100089.34;5005968;28;20192;-76
2022/06/26 05:11:43;;;;;;;1.13;1.03;;;;;;;31.54;74.73;100091.13;5006477;28;20645;-77
2022/06/26 05:14:09;;;;;;;1.20;1.10;;;;;;;32.09;72.43;100091.84;5002184;28;20200;-76
2022/06/26 05:16:37;;;;;;;1.20;1.10;;;;;;;32.37;70.34;100083.63;5017971;28;20197;-76
2022/06/26 05:19:03;;;;;;;1.20;1.10;;;;;;;32.29;70.72;100076.41;5003657;28;20212;-77
2022/06/26 05:21:28;;;;;;;1.23;1.13;;;;;;;32.44;70.18;100082.00;5001691;28;20282;-77
2022/06/26 05:23:54;;;;;;;1.23;1.20;;;;;;;32.78;69.67;100074.88;5009105;28;20578;-76
2022/06/26 05:26:20;;;;;;;1.30;1.20;;;;;;;33.22;68.90;100074.63;5004402;28;20219;-76
2022/06/26 05:28:45;;;;;;;0.90;0.90;;;;;;;33.64;68.38;100083.53;5000680;28;20196;-76
2022/06/26 05:31:11;;;;;;;0.90;0.90;;;;;;;34.01;67.15;100083.97;4992213;28;20177;-76
2022/06/26 05:33:36;;;;;;;1.17;1.08;;;;;;;34.45;66.63;100093.41;5003126;28;20205;-77
2022/06/26 05:36:02;;;;;;;1.25;1.15;;;;;;;34.77;65.19;100094.25;4999178;28;20528;-76
2022/06/26 05:38:28;;;;;;;1.15;1.10;;;;;;;34.89;64.43;100086.59;4998811;28;20195;-76
2022/06/26 05:40:53;;;;;;;1.30;1.20;;;;;;;35.05;64.09;100070.41;5002546;28;20197;-77
2022/06/26 05:43:19;;;;;;;1.23;1.10;;;;;;;35.18;62.93;100077.00;5009441;28;20208;-77
2022/06/26 05:45:44;;;;;;;2.10;1.00;;;;;;;35.20;62.78;100085.75;5019373;28;20270;-77
2022/06/26 05:48:10;;;;;;;1.02;1.02;;;;;;;35.29;62.94;100076.56;5011010;28;20202;-77
2022/06/26 05:50:35;;;;;;;1.38;1.08;;;;;;;35.54;62.72;100074.53;5019895;28;20715;-77
2022/06/26 05:53:00;;;;;;;1.15;1.08;;;;;;;35.93;62.12;100078.00;5016428;28;20799;-78
2022/06/26 05:55:26;;;;;;;1.55;1.20;;;;;;;36.22;61.64;100084.44;5026164;28;20207;-77
2022/06/26 05:57:51;;;;;;;1.83;0.90;;;;;;;36.42;60.92;100071.19;5011265;28;20184;-77
2022/06/26 06:00:17;;;;;;;1.17;1.08;;;;;;;36.57;60.91;100079.28;5008026;28;20199;-77
2022/06/26 06:02:42;;;;;;;0.93;0.93;;;;;;;36.68;60.15;100083.31;5017224;28;20187;-77
2022/06/26 06:05:08;;;;;;;1.20;1.10;;;;;;;36.72;60.29;100089.19;5026968;28;20858;-77
2022/06/26 06:07:36;;;;;;;1.20;1.10;;;;;;;36.82;59.78;100100.50;5004506;28;20314;-78
2022/06/26 06:10:03;;;;;;;1.08;0.93;;;;;;;36.73;59.29;100105.16;5011058;28;20187;-77
2022/06/26 06:12:28;;;;;;;1.35;1.25;;;;;;;36.95;59.60;100110.63;5028676;28;20199;-77
2022/06/26 06:14:53;;;;;;;0.90;0.90;;;;;;;37.19;59.08;100097.75;5004171;28;20208;-77
2022/06/26 06:17:37;;;;;;;0.85;0.85;;;;;;;37.31;58.91;100104.31;5008061;28;20582;-77
2022/06/26 06:20:06;;;;;;;1.08;0.93;;;;;;;37.55;58.74;100110.34;5023113;28;20887;-78
2022/06/26 06:22:31;;;;;;;1.63;1.00;;;;;;;37.63;58.29;100112.88;5022824;28;20192;-78
2022/06/26 06:24:57;;;;;;;1.00;1.00;;;;;;;37.69;58.54;100118.53;5006428;28;20192;-77
2022/06/26 06:27:22;;;;;;;1.20;1.10;;;;;;;37.80;58.36;100118.84;5009992;28;20224;-79
2022/06/26 06:29:48;;;;;;;1.10;1.00;;;;;;;38.02;58.07;100118.78;5001856;28;20958;-77
2022/06/26 06:32:13;;;;;;;0.88;0.88;;;;;;;38.13;57.97;100120.09;5009676;28;20188;-77
2022/06/26 06:34:39;;;;;;;1.00;1.00;;;;;;;38.13;56.31;100122.81;5019935;28;20220;-77
2022/06/26 06:37:04;;;;;;;1.10;1.10;;;;;;;37.85;56.10;100129.06;5019508;28;20192;-78
2022/06/26 06:39:29;;;;;;;1.48;1.00;;;;;;;37.43;55.22;100128.94;5005926;28;20322;-78
2022/06/26 06:41:55;;;;;;;2.45;1.00;;;;;;;37.17;56.07;100130.34;5008316;28;20230;-76
2022/06/26 06:44:20;;;;;;;1.00;0.90;;;;;;;37.06;56.63;100123.59;5025202;28;20296;-77
2022/06/26 06:46:46;;;;;;;1.63;1.02;;;;;;;37.14;56.64;100119.94;5004115;28;20207;-78
2022/06/26 06:49:11;;;;;;;1.60;1.13;;;;;;;37.31;56.99;100120.50;5007546;28;20242;-77
2022/06/26 06:51:36;;;;;;;1.35;1.00;;;;;;;37.41;56.66;100133.69;5007929;28;20279;-76
2022/06/26 06:54:02;;;;;;;1.10;1.10;;;;;;;37.57;56.50;100129.03;5018577;28;20934;-76
2022/06/26 06:56:27;;;;;;;1.17;1.08;;;;;;;37.60;56.79;100131.34;5018294;28;20279;-77
2022/06/26 06:58:53;;;;;;;1.73;1.20;;;;;;;37.69;56.71;100132.03;5006915;28;20927;-76
2022/06/26 07:01:18;;;;;;;1.42;1.25;;;;;;;37.58;56.99;100122.63;4997714;28;20190;-77
2022/06/26 07:03:44;;;;;;;1.75;1.20;;;;;;;37.49;56.49;100127.31;5003835;28;20347;-77
2022/06/26 07:06:09;;;;;;;1.70;1.15;;;;;;;37.20;57.12;100134.50;5004991;28;20212;-77
2022/06/26 07:08:34;;;;;;;0.90;0.90;;;;;;;37.09;56.63;100126.94;5002908;28;20201;-78
2022/06/26 07:11:00;;;;;;;1.00;1.00;;;;;;;36.95;56.96;100132.19;5004174;28;20196;-78
2022/06/26 07:13:26;;;;;;;1.40;0.95;;;;;;;37.06;57.77;100136.25;5022261;28;20193;-78
2022/06/26 07:15:51;;;;;;;1.27;1.13;;;;;;;37.18;57.22;100141.94;5006446;28;20187;-78
2022/06/26 07:18:17;;;;;;;0.93;0.90;;;;;;;37.15;57.09;100134.25;5001572;28;20215;-77
2022/06/26 07:20:42;;;;;;;1.15;1.05;;;;;;;37.08;57.18;100128.78;5009366;28;20187;-77
2022/06/26 07:23:08;;;;;;;1.17;1.08;;;;;;;36.79;57.84;100124.31;5023480;28;21036;-78
2022/06/26 07:25:33;;;;;;;2.53;1.25;;;;;;;36.55;57.55;100127.16;5005193;28;20273;-77
2022/06/26 07:27:59;;;;;;;2.10;1.40;;;;;;;36.47;58.39;100124.56;5006802;28;20641;-78
2022/06/26 07:30:24;;;;;;;1.38;1.27;;;;;;;36.33;57.57;100130.75;5006588;28;20280;-77
2022/06/26 07:32:50;;;;;;;1.30;1.20;;;;;;;36.06;58.20;100122.31;5012247;28;20238;-78
2022/06/26 07:35:15;;;;;;;1.20;1.10;;;;;;;35.99;57.66;100131.16;5008162;28;20605;-80
2022/06/26 07:37:40;;;;;;;1.67;1.20;;;;;;;36.04;58.36;100130.59;5014091;28;20200;-78
2022/06/26 07:40:07;;;;;;;1.98;1.27;;;;;;;36.07;58.58;100127.53;5007403;28;20223;-78
2022/06/26 07:42:32;;;;;;;1.10;1.00;;;;;;;36.08;58.27;100121.09;5009311;28;20172;-78
2022/06/26 07:44:58;;;;;;;1.10;1.10;;;;;;;35.75;58.24;100126.84;5007901;28;20231;-77
2022/06/26 07:47:23;;;;;;;1.17;1.10;;;;;;;35.47;58.72;100126.56;5007502;28;20220;-75
2022/06/26 07:49:48;;;;;;;1.30;1.20;;;;;;;35.18;59.18;100134.31;5004920;28;20787;-76
2022/06/26 07:52:14;;;;;;;1.52;1.20;;;;;;;34.92;59.50;100131.97;5023862;28;20191;-76
2022/06/26 07:54:39;;;;;;;1.30;1.20;;;;;;;34.77;59.89;100130.03;5018886;28;20637;-75
2022/06/26 07:57:05;;;;;;;1.38;1.23;;;;;;;34.61;59.78;100138.16;5004941;28;20184;-74
2022/06/26 07:59:30;;;;;;;1.25;1.15;;;;;;;34.60;60.32;100147.25;5018107;28;20195;-76
2022/06/26 08:01:55;;;;;;;1.23;1.13;;;;;;;34.52;59.51;100144.56;5001893;28;20699;-76
2022/06/26 08:04:21;;;;;;;1.13;1.00;;;;;;;33.78;59.91;100149.06;5006931;28;20200;-75
2022/06/26 08:06:46;;;;;;;1.15;1.05;;;;;;;32.78;61.86;100145.38;5007637;28;20231;-76
2022/06/26 08:09:12;;;;;;;1.20;0.90;;;;;;;31.90;63.58;100144.59;5017097;28;20185;-75
2022/06/26 08:11:37;;;;;;;1.00;0.88;;;;;;;31.21;65.35;100148.81;5029745;28;20180;-77
2022/06/26 08:14:02;;;;;;;1.30;1.20;;;;;;;30.74;66.20;100144.44;5006140;28;20208;-75
2022/06/26 08:16:28;;;;;;;2.17;1.20;;;;;;;30.75;66.76;100143.47;5012308;28;20177;-75
2022/06/26 08:18:53;;;;;;;1.07;1.07;;;;;;;30.67;67.15;100146.88;5028996;28;20218;-75
2022/06/26 08:24:03;;;;;;;1.60;1.47;;;;;;;31.10;66.84;100145.34;5006635;28;20230;-76
2022/06/26 08:26:28;;;;;;;1.00;1.00;;;;;;;30.99;66.53;100149.06;5005783;28;20211;-77
2022/06/26 08:28:54;;;;;;;1.17;1.07;;;;;;;30.74;67.65;100147.13;4997805;28;20246;-76
2022/06/26 08:31:19;;;;;;;1.30;1.20;;;;;;;30.43;67.84;100142.84;5005459;28;20656;-77
2022/06/26 08:33:45;;;;;;;1.20;1.10;;;;;;;30.11;68.06;100146.75;5019822;28;20218;-76
2022/06/26 08:36:11;;;;;;;1.17;1.07;;;;;;;29.93;68.44;100141.28;5004640;28;20192;-75
2022/06/26 08:38:37;;;;;;;0.80;0.80;;;;;;;30.03;69.09;100150.13;5008234;28;20212;-78
2022/06/26 08:41:02;;;;;;;1.07;1.00;;;;;;;30.24;68.49;100147.31;5008006;28;20279;-75
2022/06/26 08:43:28;;;;;;;0.90;0.90;;;;;;;30.32;67.69;100145.72;5014799;28;20202;-76
2022/06/26 08:45:54;;;;;;;1.33;1.10;;;;;;;30.01;68.66;100137.94;5009023;28;20192;-75
2022/06/26 08:48:24;;;;;;;1.43;1.20;;;;;;;29.83;69.56;100140.47;5040306;28;20241;-75
2022/06/26 08:50:50;;;;;;;1.17;1.07;;;;;;;29.72;68.45;100138.81;5022267;28;20254;-77
2022/06/26 08:53:18;;;;;;;1.00;1.00;;;;;;;29.55;68.55;100146.53;5006469;28;20255;-76
2022/06/26 08:55:44;;;;;;;2.20;1.40;;;;;;;29.58;68.63;100151.59;5007989;28;20188;-76
2022/06/26 08:58:09;;;;;;;1.37;1.27;;;;;;;29.65;69.02;100162.53;5004649;28;20200;-76
2022/06/26 09:00:35;;;;;;;1.20;1.10;;;;;;;29.84;68.96;100152.84;5011407;28;20209;-76
2022/06/26 09:03:00;;;;;;;1.10;1.00;;;;;;;30.09;68.99;100157.59;5004262;28;20192;-77
2022/06/26 09:05:26;;;;;;;1.13;1.00;;;;;;;30.27;68.66;100165.66;5000055;28;20707;-77
2022/06/26 09:07:53;;;;;;;1.20;1.10;;;;;;;30.50;68.57;100161.78;5003738;28;20209;-78
2022/06/26 09:10:21;;;;;;;1.20;1.00;;;;;;;30.68;68.63;100156.56;5013132;28;20188;-77
2022/06/26 09:12:57;;;;;;;2.30;1.20;;;;;;;30.82;68.40;100161.41;5009991;28;20195;-77
2022/06/26 09:15:24;;;;;;;1.73;1.30;;;;;;;30.81;68.43;100167.75;5000736;28;20199;-77
2022/06/26 09:18:05;;;;;;;1.23;1.10;;;;;;;30.70;68.36;100162.63;5008636;28;20190;-76
2022/06/26 09:20:33;;;;;;;1.47;1.20;;;;;;;30.51;68.19;100164.34;5004885;28;20275;-76
2022/06/26 09:23:00;;;;;;;1.27;1.20;;;;;;;30.25;67.82;100161.47;5007294;28;20322;-77
2022/06/26 09:25:40;;;;;;;1.10;1.10;;;;;;;30.17;68.08;100158.72;5004106;28;20246;-77
2022/06/26 09:28:17;;;;;;;1.20;1.07;;;;;;;30.28;68.72;100161.19;5010006;28;20212;-76
2022/06/26 09:30:59;;;;;;;1.13;1.10;;;;;;;30.55;68.26;100155.06;5012555;28;20559;-77
2022/06/26 09:33:30;;;;;;;1.10;1.00;;;;;;;30.79;68.03;100156.38;5002582;28;20319;-77
2022/06/26 09:35:57;;;;;;;1.20;1.10;;;;;;;31.08;68.29;100151.84;5007927;28;20180;-76
2022/06/26 09:38:24;;;;;;;0.93;0.93;;;;;;;31.21;68.38;100160.38;5009149;28;20192;-77
2022/06/26 09:40:54;;;;;;;1.13;1.00;;;;;;;31.13;68.24;100161.13;5019503;28;20232;-77
2022/06/26 09:43:37;;;;;;;0.97;0.97;;;;;;;30.71;68.20;100165.13;5027073;28;20623;-77
2022/06/26 09:46:05;;;;;;;1.40;1.30;;;;;;;30.41;69.57;100166.19;5012972;28;20655;-77
2022/06/26 09:48:32;;;;;;;1.17;1.07;;;;;;;30.20;70.18;100172.59;5027233;28;20195;-77
2022/06/26 09:50:58;;;;;;;0.93;0.93;;;;;;;30.07;71.01;100169.41;5015839;28;20239;-77
2022/06/26 09:53:25;;;;;;;1.10;1.10;;;;;;;29.92;71.20;100167.16;5008561;28;20575;-77
2022/06/26 09:55:54;;;;;;;1.00;1.00;;;;;;;29.80;71.84;100158.44;5011947;28;20716;-77
2022/06/26 09:58:20;;;;;;;1.00;1.00;;;;;;;29.84;71.22;100158.16;5020916;28;20188;-76
2022/06/26 10:06:27;;;;;;;1.40;1.00;;;;;;;29.97;70.51;100142.72;5007329;28;20226;-76
2022/06/26 10:09:02;;;;;;;1.23;1.00;;;;;;;30.05;70.56;100150.00;5029824;28;20226;-76
2022/06/26 10:11:30;;;;;;;1.10;1.10;;;;;;;30.08;70.10;100153.22;5001017;28;20193;-76
2022/06/26 10:14:18;;;;;;;1.00;0.93;;;;;;;30.04;70.55;100145.66;5013335;28;20204;-77
2022/06/26 10:16:55;;;;;;;1.10;1.00;;;;;;;29.94;70.35;100150.97;5012601;28;20288;-76
2022/06/26 10:19:28;;;;;;;1.77;1.30;;;;;;;29.84;70.55;100145.66;5013532;28;20235;-76
2022/06/26 10:21:54;;;;;;;1.00;1.00;;;;;;;29.72;70.50;100144.13;5010638;28;20279;-77
2022/06/26 10:24:19;;;;;;;1.20;1.10;;;;;;;29.62;70.99;100149.47;5007055;28;20266;-77
2022/06/26 10:26:56;;;;;;;0.90;0.90;;;;;;;29.67;71.80;100144.56;5013682;28;20665;-77
2022/06/26 10:29:32;;;;;;;1.00;1.00;;;;;;;29.72;71.73;100141.47;5009398;28;20184;-77
2022/06/26 10:31:57;;;;;;;1.73;1.20;;;;;;;29.68;71.52;100140.94;5003690;28;20179;-76
2022/06/26 10:34:25;;;;;;;1.20;1.10;;;;;;;29.60;71.39;100138.97;5031155;28;20215;-76
2022/06/26 10:37:14;;;;;;;2.70;1.37;;;;;;;29.55;71.19;100132.38;5010586;28;20314;-77
2022/06/26 10:39:43;;;;;;;1.10;1.10;;;;;;;29.65;71.40;100134.03;5016169;28;20183;-77
2022/06/26 10:45:06;;;;;;;1.20;1.10;;;;;;;30.08;71.44;100142.56;5017225;28;20219;-77
2022/06/26 10:47:44;;;;;;;1.77;1.10;;;;;;;30.24;71.49;100147.31;5040033;28;20216;-77
2022/06/26 10:50:27;;;;;;;0.97;0.97;;;;;;;30.34;71.05;100135.75;5022681;28;20279;-77
2022/06/26 10:53:11;;;;;;;1.10;1.00;;;;;;;30.42;70.53;100133.16;4997103;28;20185;-77
2022/06/26 10:55:38;;;;;;;0.90;0.90;;;;;;;30.62;70.86;100123.28;5006808;28;20242;-77
2022/06/26 10:58:03;;;;;;;1.10;1.00;;;;;;;30.81;70.41;100135.69;5020817;28;20202;-76
2022/06/26 11:00:29;;;;;;;1.20;1.10;;;;;;;30.88;70.03;100141.28;5005397;28;20189;-76
2022/06/26 11:02:54;;;;;;;1.17;1.07;;;;;;;30.90;69.39;100139.28;5013663;28;20212;-76
2022/06/26 11:05:20;;;;;;;1.20;1.10;;;;;;;30.92;69.61;100140.00;5006617;28;20216;-77
2022/06/26 11:07:55;;;;;;;1.00;1.00;;;;;;;30.93;68.82;100124.78;5020543;28;20609;-78
2022/06/26 11:10:22;;;;;;;0.80;0.80;;;;;;;31.02;68.98;100118.53;5009388;28;20184;-77
2022/06/26 11:12:53;;;;;;;1.03;0.97;;;;;;;31.17;68.28;100111.69;5014257;28;20225;-77
2022/06/26 11:15:32;;;;;;;1.02;1.00;;;;;;;31.23;67.90;100120.97;5030884;28;20652;-78
2022/06/26 11:18:05;;;;;;;0.80;0.80;;;;;;;31.35;67.53;100112.69;5007611;28;20286;-77
2022/06/26 11:20:49;;;;;;;1.00;1.00;;;;;;;31.28;67.31;100117.81;5029750;28;20199;-77
2022/06/26 11:23:22;;;;;;;1.17;1.10;;;;;;;31.24;67.47;100117.25;5017175;28;20205;-77
2022/06/26 11:25:52;;;;;;;1.00;1.00;;;;;;;31.31;67.85;100107.66;5011901;28;20184;-77
2022/06/26 11:28:17;;;;;;;0.90;0.90;;;;;;;31.42;67.17;100113.75;5022191;28;20239;-77
2022/06/26 11:30:46;;;;;;;1.20;1.10;;;;;;;31.43;65.99;100107.41;5008290;28;20196;-78
2022/06/26 11:33:11;;;;;;;1.30;1.20;;;;;;;31.39;66.50;100108.69;5014593;28;20240;-78
2022/06/26 11:35:37;;;;;;;2.42;0.95;;;;;;;31.48;66.46;100113.97;5005233;28;20177;-78